createdAt,value
2022-08-22T00:02:09.632Z,4.60
2022-08-22T00:02:56.358Z,1.65
2022-08-22T00:04:51.829Z,6.88
2022-08-22T00:07:40.241Z,3.50
2022-08-22T00:10:25.644Z,3.78
2022-08-22T00:13:35.095Z,3.58
2022-08-22T00:16:14.085Z,3.90
2022-08-22T00:19:09.606Z,3.63
2022-08-22T00:21:51.245Z,1.90
2022-08-22T00:24:25.157Z,4.78
2022-08-22T00:27:19.589Z,1.35
2022-08-22T00:30:15.897Z,3.80
2022-08-22T00:33:05.565Z,3.13
2022-08-22T00:35:46.377Z,6.40
2022-08-22T00:38:20.285Z,6.90
2022-08-22T00:41:02.310Z,2.03
2022-08-22T00:44:06.713Z,3.13
2022-08-22T00:47:02.393Z,3.17
2022-08-22T00:50:03.572Z,4.90
2022-08-22T00:52:30.393Z,1.48
2022-08-22T00:55:15.810Z,2.97
2022-08-22T00:58:20.285Z,2.42
2022-08-22T01:01:04.216Z,3.65
2022-08-22T01:03:47.027Z,5.55
2022-08-22T01:06:32.256Z,5.57
2022-08-22T01:09:23.591Z,4.43
2022-08-22T01:12:28.178Z,4.95
2022-08-22T01:15:04.650Z,4.07
2022-08-22T01:17:47.189Z,3.35
2022-08-22T01:20:32.986Z,4.97
2022-08-22T01:23:03.015Z,5.57
2022-08-22T01:26:07.370Z,5.15
2022-08-22T01:29:02.592Z,3.33
2022-08-22T01:32:07.279Z,4.72
2022-08-22T01:34:39.818Z,3.70
2022-08-22T01:37:18.724Z,4.53
2022-08-22T01:40:16.606Z,6.00
2022-08-22T01:42:55.572Z,5.32
2022-08-22T01:46:10.108Z,3.40
2022-08-22T01:48:48.206Z,3.60
2022-08-22T01:51:26.720Z,1.90
2022-08-22T01:53:58.584Z,3.65
2022-08-22T01:56:31.577Z,4.32
2022-08-22T01:59:09.013Z,5.40
2022-08-22T02:01:49.730Z,3.97
2022-08-22T02:04:37.380Z,3.85
2022-08-22T02:07:04.365Z,3.60
2022-08-22T02:09:47.600Z,2.10
2022-08-22T02:12:45.268Z,2.55
2022-08-22T02:15:27.202Z,2.05
2022-08-22T02:18:17.908Z,1.75
2022-08-22T02:20:59.673Z,4.00
2022-08-22T02:23:50.921Z,4.68
2022-08-22T02:26:26.655Z,2.38
2022-08-22T02:29:29.672Z,4.18
2022-08-22T02:32:02.392Z,4.45
2022-08-22T02:34:42.761Z,4.10
2022-08-22T02:37:20.450Z,3.58
2022-08-22T02:40:15.456Z,3.72
2022-08-22T02:43:18.595Z,3.90
2022-08-22T02:46:00.468Z,3.65
2022-08-22T02:48:40.521Z,3.10
2022-08-22T02:51:21.485Z,3.47
2022-08-22T02:53:53.460Z,4.40
2022-08-22T02:56:37.953Z,2.60
2022-08-22T02:59:14.240Z,3.10
2022-08-22T03:01:47.141Z,3.83
2022-08-22T03:04:46.714Z,5.05
2022-08-22T03:07:23.620Z,4.50
2022-08-22T03:13:43.875Z,3.63
2022-08-22T03:16:15.317Z,1.75
2022-08-22T03:19:14.939Z,2.97
2022-08-22T03:22:03.825Z,4.00
2022-08-22T03:24:54.041Z,2.83
2022-08-22T03:27:33.494Z,8.10
2022-08-22T03:30:13.707Z,1.40
2022-08-22T03:33:13.944Z,3.10
2022-08-22T03:35:46.805Z,4.78
2022-08-22T03:38:13.812Z,2.38
2022-08-22T03:41:16.463Z,2.60
2022-08-22T03:44:15.588Z,2.75
2022-08-22T03:46:51.695Z,3.08
2022-08-22T03:49:27.195Z,3.70
2022-08-22T03:52:57.117Z,1.77
2022-08-22T03:55:42.441Z,4.68
2022-08-22T03:58:28.240Z,3.17
2022-08-22T04:01:10.424Z,5.43
2022-08-22T04:03:43.369Z,3.92
2022-08-22T04:06:39.175Z,1.73
2022-08-22T04:09:44.413Z,3.70
2022-08-22T04:12:34.523Z,3.22
2022-08-22T04:15:30.238Z,8.55
2022-08-22T04:21:14.670Z,4.65
2022-08-22T04:24:02.853Z,3.45
2022-08-22T04:26:42.360Z,6.05
2022-08-22T04:29:24.688Z,2.80
2022-08-22T04:32:04.110Z,4.63
2022-08-22T04:38:12.156Z,5.53
2022-08-22T04:40:50.289Z,4.32
2022-08-22T04:43:28.286Z,5.78
2022-08-22T04:46:03.723Z,1.52
2022-08-22T04:48:57.025Z,2.53
2022-08-22T04:51:55.170Z,4.18
2022-08-22T04:54:37.593Z,2.10
2022-08-22T05:00:17.559Z,4.45
2022-08-22T05:02:50.278Z,4.10
2022-08-22T05:05:23.657Z,4.63
2022-08-22T05:07:56.414Z,4.47
2022-08-22T05:10:33.640Z,10.65
2022-08-22T05:13:09.656Z,3.15
2022-08-22T05:15:40.821Z,3.15
2022-08-22T05:18:32.324Z,4.85
2022-08-22T05:21:05.029Z,4.10
2022-08-22T05:23:51.244Z,6.03
2022-08-22T05:26:20.604Z,2.60
2022-08-22T05:28:53.217Z,7.82
2022-08-22T05:31:44.410Z,4.13
2022-08-22T05:34:16.705Z,7.30
2022-08-22T05:36:49.709Z,4.70
2022-08-22T05:39:21.415Z,2.05
2022-08-22T05:42:00.391Z,5.07
2022-08-22T05:44:37.681Z,4.10
2022-08-22T05:47:06.430Z,6.65
2022-08-22T05:50:02.213Z,6.10
2022-08-22T05:53:17.901Z,5.32
2022-08-22T05:56:03.300Z,3.90
2022-08-22T05:58:39.222Z,5.78
2022-08-22T06:01:35.812Z,4.40
2022-08-22T06:04:06.926Z,8.73
2022-08-22T06:06:52.029Z,3.05
2022-08-22T06:09:18.802Z,8.93
2022-08-22T06:12:21.909Z,5.18
2022-08-22T06:15:12.619Z,5.30
2022-08-22T06:17:48.059Z,7.07
2022-08-22T06:20:21.253Z,3.78
2022-08-22T06:23:08.312Z,5.07
2022-08-22T06:26:01.325Z,4.03
2022-08-22T06:28:35.024Z,5.05
2022-08-22T06:31:39.786Z,6.32
2022-08-22T06:34:17.614Z,4.15
2022-08-22T06:36:49.188Z,9.45
2022-08-22T06:39:26.468Z,5.20
2022-08-22T06:42:17.656Z,4.13
2022-08-22T06:44:54.304Z,5.43
2022-08-22T06:47:36.828Z,3.67
2022-08-22T06:50:28.229Z,5.78
2022-08-22T06:53:00.460Z,4.88
2022-08-22T06:55:30.481Z,3.85
2022-08-22T06:58:07.442Z,4.30
2022-08-22T07:00:35.823Z,4.95
2022-08-22T07:03:15.133Z,7.68
2022-08-22T07:05:43.026Z,6.47
2022-08-22T07:08:14.127Z,7.22
2022-08-22T07:10:44.284Z,12.90
2022-08-22T07:13:19.921Z,7.53
2022-08-22T07:15:54.701Z,4.65
2022-08-22T07:18:26.781Z,3.72
2022-08-22T07:21:04.437Z,6.80
2022-08-22T07:23:35.070Z,6.72
2022-08-22T07:26:12.231Z,7.55
2022-08-22T07:28:58.748Z,6.85
2022-08-22T07:31:43.878Z,8.23
2022-08-22T07:34:25.822Z,7.90
2022-08-22T07:37:03.517Z,14.85
2022-08-22T07:39:41.283Z,6.30
2022-08-22T07:42:17.608Z,9.27
2022-08-22T07:45:18.257Z,9.32
2022-08-22T07:47:54.776Z,8.55
2022-08-22T07:50:26.967Z,10.05
2022-08-22T07:53:01.820Z,8.40
2022-08-22T07:55:28.888Z,4.78
2022-08-22T07:58:04.115Z,5.70
2022-08-22T08:00:32.522Z,4.68
2022-08-22T08:03:23.570Z,6.13
2022-08-22T08:05:50.762Z,4.32
2022-08-22T08:08:31.120Z,3.95
2022-08-22T08:11:00.093Z,1.52
2022-08-22T08:13:35.842Z,6.43
2022-08-22T08:16:07.661Z,4.78
2022-08-22T08:18:37.476Z,1.95
2022-08-22T08:21:08.386Z,3.22
2022-08-22T08:23:55.218Z,4.10
2022-08-22T08:26:28.124Z,11.25
2022-08-22T08:28:58.570Z,5.53
2022-08-22T08:31:43.137Z,6.50
2022-08-22T08:34:19.753Z,3.38
2022-08-22T08:36:55.187Z,6.63
2022-08-22T08:39:48.687Z,10.48
2022-08-22T08:43:00.708Z,6.30
2022-08-22T08:45:39.705Z,4.57
2022-08-22T08:48:31.014Z,4.53
2022-08-22T08:51:26.168Z,3.60
2022-08-22T08:54:16.285Z,3.40
2022-08-22T08:56:49.560Z,7.15
2022-08-22T09:00:01.032Z,6.95
2022-08-22T09:02:52.772Z,4.53
2022-08-22T09:05:31.281Z,14.05
2022-08-22T09:08:23.492Z,4.70
2022-08-22T09:10:57.317Z,1.60
2022-08-22T09:14:01.445Z,7.57
2022-08-22T09:17:08.081Z,3.95
2022-08-22T09:20:15.471Z,9.25
2022-08-22T09:22:56.646Z,6.10
2022-08-22T09:25:25.501Z,3.30
2022-08-22T09:28:13.970Z,4.07
2022-08-22T09:30:54.259Z,3.33
2022-08-22T09:33:24.838Z,5.65
2022-08-22T09:36:03.137Z,1.67
2022-08-22T09:38:57.189Z,3.35
2022-08-22T09:41:36.600Z,4.20
2022-08-22T09:44:10.243Z,3.28
2022-08-22T09:47:03.976Z,4.78
2022-08-22T09:49:48.360Z,4.40
2022-08-22T09:52:45.440Z,3.95
2022-08-22T09:55:45.126Z,7.20
2022-08-22T09:58:27.941Z,2.53
2022-08-22T10:01:53.687Z,6.75
2022-08-22T10:04:23.335Z,3.25
2022-08-22T10:07:27.963Z,4.07
2022-08-22T10:10:11.629Z,4.03
2022-08-22T10:12:57.405Z,2.25
2022-08-22T10:15:57.569Z,3.80
2022-08-22T10:19:10.044Z,1.38
2022-08-22T10:21:42.967Z,3.67
2022-08-22T10:24:31.713Z,3.42
2022-08-22T10:27:09.859Z,3.33
2022-08-22T10:30:22.744Z,2.10
2022-08-22T10:38:46.357Z,1.10
2022-08-22T10:41:58.607Z,3.85
2022-08-22T10:44:44.316Z,2.83
2022-08-22T10:47:44.603Z,4.03
2022-08-22T10:50:20.525Z,2.30
2022-08-22T10:52:51.653Z,2.63
2022-08-22T10:55:27.261Z,1.88
2022-08-22T10:58:13.394Z,4.28
2022-08-22T11:01:01.728Z,2.25
2022-08-22T11:04:16.434Z,2.95
2022-08-22T11:07:02.046Z,1.55
2022-08-22T11:09:42.219Z,2.53
2022-08-22T11:15:49.678Z,4.78
2022-08-22T11:18:23.597Z,1.95
2022-08-22T11:21:13.964Z,4.45
2022-08-22T11:24:35.339Z,3.22
2022-08-22T11:27:48.846Z,1.88
2022-08-22T11:30:25.963Z,0.80
2022-08-22T11:33:00.552Z,2.95
2022-08-22T11:35:42.397Z,4.70
2022-08-22T11:38:32.702Z,4.32
2022-08-22T11:41:02.832Z,5.22
2022-08-22T11:44:01.533Z,4.32
2022-08-22T11:46:43.414Z,4.95
2022-08-22T11:49:25.738Z,8.65
2022-08-22T11:52:02.485Z,5.85
2022-08-22T11:54:54.431Z,8.48
2022-08-22T11:57:38.875Z,4.78
2022-08-22T12:00:33.542Z,5.85
2022-08-22T12:03:09.755Z,3.85
2022-08-22T12:05:50.325Z,4.63
2022-08-22T12:08:30.009Z,1.85
2022-08-22T12:11:10.190Z,2.78
2022-08-22T12:13:37.018Z,5.05
2022-08-22T12:16:20.500Z,5.50
2022-08-22T12:19:05.570Z,6.45
2022-08-22T12:22:04.376Z,7.47
2022-08-22T12:24:33.708Z,7.68
2022-08-22T12:27:27.998Z,5.78
2022-08-22T12:30:26.281Z,6.82
2022-08-22T12:33:37.320Z,6.25
2022-08-22T12:36:50.336Z,6.82
2022-08-22T12:39:47.883Z,9.50
2022-08-22T12:42:39.983Z,6.47
2022-08-22T12:45:57.427Z,4.75
2022-08-22T12:49:01.936Z,7.53
2022-08-22T12:52:35.303Z,6.00
2022-08-22T12:55:07.959Z,7.22
2022-08-22T12:57:54.149Z,4.32
2022-08-22T13:00:40.384Z,6.70
2022-08-22T13:03:19.862Z,10.82
2022-08-22T13:05:56.673Z,5.30
2022-08-22T13:08:37.193Z,7.28
2022-08-22T13:11:22.350Z,4.93
2022-08-22T13:13:56.451Z,7.22
2022-08-22T13:16:25.637Z,9.32
2022-08-22T13:19:18.978Z,5.95
2022-08-22T13:21:59.475Z,7.75
2022-08-22T13:24:57.029Z,6.60
2022-08-22T13:30:23.202Z,6.25
2022-08-22T13:32:53.932Z,5.95
2022-08-22T13:35:37.771Z,11.05
2022-08-22T13:38:36.398Z,8.20
2022-08-22T13:41:05.373Z,6.35
2022-08-22T13:43:56.964Z,6.38
2022-08-22T13:46:35.591Z,5.30
2022-08-22T13:49:08.014Z,6.63
2022-08-22T13:51:41.322Z,9.35
2022-08-22T13:54:50.032Z,6.70
2022-08-22T13:57:41.977Z,2.90
2022-08-22T14:00:31.971Z,5.95
2022-08-22T14:03:22.890Z,10.90
2022-08-22T14:05:53.899Z,3.28
2022-08-22T14:08:30.562Z,5.43
2022-08-22T14:11:48.709Z,3.88
2022-08-22T14:14:26.687Z,2.88
2022-08-22T14:16:55.971Z,4.35
2022-08-22T14:19:58.989Z,5.65
2022-08-22T14:22:34.998Z,2.45
2022-08-22T14:25:16.781Z,4.55
2022-08-22T14:28:09.394Z,7.60
2022-08-22T14:30:49.507Z,4.75
2022-08-22T14:33:25.701Z,4.63
2022-08-22T14:36:02.062Z,3.05
2022-08-22T14:38:39.257Z,2.60
2022-08-22T14:41:28.685Z,3.10
2022-08-22T14:44:26.334Z,1.48
2022-08-22T14:47:00.841Z,3.95
2022-08-22T14:50:13.301Z,4.68
2022-08-22T14:52:50.454Z,5.22
2022-08-22T14:55:23.890Z,1.08
2022-08-22T14:57:56.489Z,1.80
2022-08-22T15:00:45.470Z,0.82
2022-08-22T15:03:25.652Z,1.20
2022-08-22T15:06:16.896Z,1.83
2022-08-22T15:09:32.193Z,1.38
2022-08-22T15:12:19.905Z,1.30
2022-08-22T15:14:52.326Z,2.30
2022-08-22T15:17:44.938Z,1.95
2022-08-22T15:20:28.210Z,0.88
2022-08-22T15:23:01.143Z,1.70
2022-08-22T15:25:38.005Z,1.00
2022-08-22T15:28:20.745Z,3.30
2022-08-22T15:30:56.885Z,0.40
2022-08-22T15:33:29.433Z,1.85
2022-08-22T15:36:12.432Z,0.93
2022-08-22T15:41:36.921Z,0.80
2022-08-22T15:44:32.233Z,1.40
2022-08-22T15:47:28.434Z,2.38
2022-08-22T15:50:01.839Z,1.88
2022-08-22T15:53:18.817Z,1.77
2022-08-22T15:56:12.762Z,0.98
2022-08-22T15:58:49.099Z,2.65
2022-08-22T16:01:25.075Z,4.20
2022-08-22T16:04:14.813Z,1.40
2022-08-22T16:06:56.626Z,1.67
2022-08-22T16:09:54.348Z,1.45
2022-08-22T16:12:59.155Z,4.00
2022-08-22T16:15:55.913Z,2.35
2022-08-22T16:18:39.295Z,5.97
2022-08-22T16:21:16.630Z,2.05
2022-08-22T16:23:49.729Z,3.63
2022-08-22T16:26:29.150Z,4.80
2022-08-22T16:29:15.050Z,3.63
2022-08-22T16:31:47.934Z,2.20
2022-08-22T16:34:20.865Z,0.93
2022-08-22T16:37:08.774Z,2.38
2022-08-22T16:39:38.740Z,4.97
2022-08-22T16:42:14.983Z,3.33
2022-08-22T16:45:04.568Z,6.32
2022-08-22T16:47:40.739Z,5.93
2022-08-22T16:50:18.381Z,4.85
2022-08-22T16:53:30.069Z,8.38
2022-08-22T16:56:22.584Z,9.15
2022-08-22T16:59:23.449Z,6.78
2022-08-22T17:02:19.223Z,9.05
2022-08-22T17:05:02.961Z,6.93
2022-08-22T17:08:14.416Z,6.18
2022-08-22T17:11:18.238Z,15.15
2022-08-22T17:14:01.339Z,10.00
2022-08-22T17:16:40.277Z,12.07
2022-08-22T17:19:19.345Z,7.68
2022-08-22T17:21:59.146Z,6.68
2022-08-22T17:24:45.857Z,8.70
2022-08-22T17:27:30.561Z,10.85
2022-08-22T17:30:07.193Z,8.07
2022-08-22T17:32:43.218Z,13.27
2022-08-22T17:35:37.796Z,9.43
2022-08-22T17:45:07.553Z,6.38
2022-08-22T17:47:46.209Z,7.63
2022-08-22T17:50:42.772Z,6.53
2022-08-22T17:53:24.987Z,7.50
2022-08-22T17:56:26.725Z,8.07
2022-08-22T17:59:20.985Z,11.02
2022-08-22T18:01:59.839Z,8.45
2022-08-22T18:04:32.975Z,6.28
2022-08-22T18:07:54.414Z,8.70
2022-08-22T18:11:13.942Z,9.70
2022-08-22T18:13:42.138Z,10.00
2022-08-22T18:16:29.509Z,12.63
2022-08-22T18:19:08.355Z,7.22
2022-08-22T18:21:59.770Z,7.22
2022-08-22T18:24:46.332Z,8.35
2022-08-22T18:27:34.403Z,6.82
2022-08-22T18:30:27.735Z,8.63
2022-08-22T18:33:19.066Z,7.97
2022-08-22T18:36:07.572Z,9.07
2022-08-22T18:38:38.836Z,8.02
2022-08-22T18:41:26.767Z,9.68
2022-08-22T18:43:54.551Z,7.90
2022-08-22T18:46:40.220Z,9.20
2022-08-22T18:49:21.088Z,8.57
2022-08-22T18:52:07.202Z,11.07
2022-08-22T18:58:05.628Z,9.70
2022-08-22T19:01:13.074Z,10.93
2022-08-22T19:03:53.385Z,12.52
2022-08-22T19:06:38.917Z,10.25
2022-08-22T19:09:21.380Z,15.10
2022-08-22T19:11:57.396Z,16.02
2022-08-22T19:14:55.262Z,11.32
2022-08-22T19:17:59.299Z,13.68
2022-08-22T19:21:33.174Z,15.48
2022-08-22T19:24:01.151Z,15.95
2022-08-22T19:26:36.238Z,14.90
2022-08-22T19:29:24.461Z,12.38
2022-08-22T19:32:00.365Z,17.20
2022-08-22T19:34:33.818Z,16.92
2022-08-22T19:37:30.860Z,18.73
2022-08-22T19:40:05.252Z,23.50
2022-08-22T19:42:36.155Z,18.30
2022-08-22T19:45:45.010Z,18.70
2022-08-22T19:48:33.764Z,22.80
2022-08-22T19:51:12.734Z,16.55
2022-08-22T19:54:04.274Z,16.27
2022-08-22T19:57:03.536Z,16.38
2022-08-22T19:59:50.481Z,9.50
2022-08-22T20:02:52.897Z,13.32
2022-08-22T20:05:58.701Z,20.55
2022-08-22T20:08:31.335Z,19.08
2022-08-22T20:11:14.420Z,21.40
2022-08-22T20:13:41.459Z,19.17
2022-08-22T20:16:13.337Z,18.23
2022-08-22T20:19:05.014Z,11.50
2022-08-22T20:22:00.127Z,19.52
2022-08-22T20:24:52.785Z,10.88
2022-08-22T20:27:36.029Z,21.55
2022-08-22T20:30:18.201Z,20.30
2022-08-22T20:33:10.291Z,17.35
2022-08-22T20:35:50.674Z,27.35
2022-08-22T20:38:23.832Z,24.17
2022-08-22T20:41:11.123Z,28.77
2022-08-22T20:43:50.924Z,31.70
2022-08-22T20:46:46.714Z,30.17
2022-08-22T20:49:20.406Z,27.67
2022-08-22T20:51:52.146Z,39.03
2022-08-22T20:54:23.000Z,40.42
2022-08-22T20:57:00.547Z,41.38
2022-08-22T20:59:37.818Z,37.47
2022-08-22T21:02:23.764Z,51.70
2022-08-22T21:05:07.908Z,33.92
2022-08-22T21:08:13.916Z,31.48
2022-08-22T21:11:00.481Z,51.78
2022-08-22T21:13:34.625Z,42.15
2022-08-22T21:16:13.864Z,45.42
2022-08-22T21:19:01.720Z,46.45
2022-08-22T21:21:31.915Z,42.10
2022-08-22T21:24:01.927Z,27.15
2022-08-22T21:27:00.846Z,31.25
2022-08-22T21:29:34.092Z,32.97
2022-08-22T21:32:15.749Z,33.20
2022-08-22T21:34:49.063Z,40.17
2022-08-22T21:37:37.567Z,32.83
2022-08-22T21:40:16.923Z,22.70
2022-08-22T21:45:45.260Z,17.13
2022-08-22T21:48:33.565Z,10.10
2022-08-22T21:51:32.107Z,21.60
2022-08-22T21:54:24.114Z,16.60
2022-08-22T21:56:53.557Z,21.00
2022-08-22T21:59:52.098Z,19.15
2022-08-22T22:02:26.038Z,19.45
2022-08-22T22:04:54.461Z,17.42
2022-08-22T22:07:24.654Z,24.50
2022-08-22T22:09:54.438Z,13.73
2022-08-22T22:12:22.363Z,24.02
2022-08-22T22:15:08.530Z,23.17
2022-08-22T22:17:35.647Z,27.55
2022-08-22T22:20:03.238Z,17.25
2022-08-22T22:22:30.116Z,23.25
2022-08-22T22:24:57.069Z,24.23
2022-08-22T22:27:24.814Z,20.95
2022-08-22T22:29:51.633Z,22.20
2022-08-22T22:32:18.832Z,17.25
2022-08-22T22:34:45.662Z,17.95
2022-08-22T22:37:13.921Z,25.55
2022-08-22T22:39:41.169Z,25.58
2022-08-22T22:42:08.586Z,20.55
2022-08-22T22:44:35.740Z,30.90
2022-08-22T22:47:03.081Z,23.45
2022-08-22T22:49:32.274Z,21.00
2022-08-22T22:52:01.242Z,24.33
2022-08-22T22:54:28.636Z,24.00
2022-08-22T22:56:57.056Z,27.13
2022-08-22T22:59:25.597Z,20.65
2022-08-22T23:02:01.906Z,26.60
2022-08-22T23:04:50.772Z,34.17
2022-08-22T23:07:18.835Z,18.02
2022-08-22T23:09:45.820Z,23.55
2022-08-22T23:12:14.193Z,23.85
2022-08-22T23:14:41.832Z,31.60
2022-08-22T23:19:54.241Z,21.17
2022-08-22T23:22:41.715Z,35.33
2022-08-22T23:25:09.749Z,18.95
2022-08-22T23:27:37.253Z,28.10
2022-08-22T23:30:06.126Z,25.13
2022-08-22T23:32:33.204Z,24.48
2022-08-22T23:35:00.086Z,29.02
2022-08-22T23:37:27.249Z,19.50
2022-08-22T23:39:54.270Z,29.23
2022-08-22T23:42:21.546Z,34.47
2022-08-22T23:44:48.384Z,28.63
2022-08-22T23:47:16.051Z,36.00
2022-08-22T23:49:43.540Z,34.60
2022-08-22T23:52:12.755Z,34.33
2022-08-22T23:54:39.757Z,33.22
2022-08-22T23:57:11.480Z,34.83
2022-08-22T23:59:44.600Z,36.20
